Eastern Lake Ontario: Past 24 Hour Conditions

 

Port Colborne - 45142

07:00 AM EDT 01 August 2015Buoy position: 42.74N 79.35W
Disclaimer

This table is a summary of hourly weather conditions for the past 24 hours.
Please note that these observations might not always be representative of weather conditions over their associated marine area.

Date / Time
(EDT)
Wind(knots) Wave height(m) Wave period(s) Pressure(kPa) Air tempC) Water tempC)
01 August 2015
7:00 NNW 12 gust 16 0.5 5.0 101.1 20 22
6:00 NNW 14 gust 16 0.4 5.0 101.0 20 22
5:00 NW 8 gust 12 0.5 5.0 101.0 21 22
4:00 NW 10 gust 12 0.6 5.0 101.0 21 22
3:00 NW 10 gust 14 0.6 5.0 100.9 21 22
2:00 NNW 6 gust 8 0.7 5.0 100.9 21 22
1:00 N 6 gust 8 0.9 6.0 100.9 22 22
0:00 NNW 8 gust 12 1.1 6.0 100.9 22 22
31 July 2015
23:00 W 12 gust 16 1.4 6.0 100.9 24 22
22:00 WSW 18 gust 19 1.6 6.0 100.8 23 22
21:00 WSW 19 gust 21 1.4 5.0 100.8 24 22
20:00 W 21 gust 29 1.1 5.0 100.8 24 23
19:00 W 12 gust 14 1.0 5.0 100.9 24 23
18:00 W 16 gust 18 1.1 5.0 100.9 24 23
17:00 W 16 gust 19 1.2 5.0 100.9 24 23
16:00 WSW 18 gust 19 1.1 5.0 100.9 23 23
15:00 W 18 gust 19 1.0 4.0 101.0 23 23
14:00 W 18 gust 21 1.0 5.0 101.1 23 23
13:00 W 18 gust 21 0.9 4.0 101.1 23 23
12:00 W 18 gust 21 0.8 4.0 101.1 23 23
11:00 W 14 gust 18 0.7 5.0 101.2 23 23
10:00 WSW 14 gust 16 0.6 5.0 101.2 23 23
9:00 SW 12 gust 14 0.6 5.0 101.2 22 23
8:00 SSW 6 gust 8 0.7 5.0 101.3 22 23
7:00 S 2 gust 2 0.7 6.0 101.3 22 22

Zoom-in to make a selection

Map of Great Lakes - Lake Erie and Lake Ontario marine weather areas N Huron - 45003 W Erie - 45005 S Huron - 45008 Lake Ontario - 45012 Port Stanley - 45132 Prince Edward Point - 45135 Georgian Bay - 45137 Grimsby - 45139 Port Colborne - 45142 South Georgian Bay - 45143 Lake St Clair - 45147 South Lake Huron - 45149 Lake Simcoe - 45151 Lake Nipissing - 45152 North Channel - 45154 Ajax - 45159 Sault Ste. Marie Airport Greater Sudbury Airport North Bay Airport Gore Bay-Manitoulin Airport Great Duck Island Brockville Grenadier Island Kingston Airport Collingwood Lagoon City Muskoka Airport Parry Sound Harbour Lake Simcoe Regional Airport Wiarton Airport Goderich Sarnia Chris Hadfield Airport Tobermory Harrow AAFC Port Weller St. Catharines Airport Southeast Shoal Vineland Station Welland-Pelham Windsor Airport Burlington Lift Bridge Cobourg Hamilton Munro Int'l Airport Oshawa Municipal Airport Point Petre Toronto City Centre Airport CFB Trenton Peterborough Municipal Airport Killarney Western Islands Cove Island Long Point Port Colborne Erieau Point Pelee
Legend:
buoy Buoy
land station Land Station

Great Lakes - Lake Erie and Lake Ontario Area

Another Region

What we are doing

Date modified: